NCAR-RAP Real-Time Weather Data

Output produced by METARs form (31 October 2014  06:04 UTC)
found at http://weather.rap.ucar.edu/surface/
 
Conditions at: K4O4 observed 31 October 2014  05:55 UTC
Temperature: 11.0°C (52°F)
Dewpoint: 7.0°C (45°F) [RH = 76%]
Pressure (altimeter): 30.12 inches Hg (1020.1 mb)
Winds: calm
Visibility: 10 or more miles (16+ km)
Ceiling: at least 12,000 feet AGL
Clouds: sky clear below 12,000 feet AGL
Present Weather: automated observation with no human augmentation;
there may or may not be significant weather present at this time
K4O4 310555Z AUTO 00000KT 10SM CLR 11/07 A3012 RMK AO2